Time;durP1;ratioP1;P1;durP2;ratioP2;P2;SDS_P1;SDS_P2;PMS_P1;PMS_P2;Temp;Humidity;BMP_temperature;BMP_pressure;BME280_temperature;BME280_humidity;BME280_pressure;Samples;Min_cycle;Max_cycle;Signal;HPM_P1;HPM_P2
2022/05/25 00:00:08;;;;;;;;;;;;;;;12.63;81.52;99062.03;1813223;77;20112;-62
2022/05/25 00:02:37;;;;;;;;;;;;;;;12.63;81.62;99055.92;1788586;78;20129;-62
2022/05/25 00:05:05;;;;;;;;;;;;;;;12.63;81.61;99055.48;1818894;77;20119;-63
2022/05/25 00:07:32;;;;;;;;;;;;;;;12.64;81.58;99047.98;1822007;77;20175;-62
2022/05/25 00:09:58;;;;;;;;;;;;;;;12.67;81.42;99026.83;1808759;77;20104;-63
2022/05/25 00:12:25;;;;;;;;;;;;;;;12.70;81.33;99016.14;1814619;78;20099;-62
2022/05/25 00:14:51;;;;;;;;;;;;;;;12.75;81.25;99011.43;1814729;77;21079;-63
2022/05/25 00:17:17;;;;;;;;;;;;;;;12.76;81.15;99003.92;1815986;77;20094;-62
2022/05/25 00:19:59;;;;;;;;;;;;;;;12.71;81.46;99002.09;1814248;78;20100;-62
2022/05/25 00:22:27;;;;;;;;;;;;;;;12.71;81.78;98999.47;1819562;78;20077;-62
2022/05/25 04:32:08;;;;;;;;;;;;;;;20.43;79.85;99181.97;1682226;81;20208;-63
2022/05/25 04:34:34;;;;;;;;;;;;;;;20.92;78.63;99186.47;1672953;81;21205;-63
2022/05/25 04:39:46;;;;;;;;;;;;;;;21.65;78.76;99167.17;1683627;81;20610;-64
2022/05/25 04:42:13;;;;;;;;;;;;;;;22.65;79.44;99174.57;1678350;82;20548;-65
2022/05/25 04:44:40;;;;;;;;;;;;;;;23.08;76.66;99187.30;1677902;82;20166;-64
2022/05/25 04:47:07;;;;;;;;;;;;;;;23.35;76.65;99186.96;1692335;82;21988;-64
2022/05/25 04:49:35;;;;;;;;;;;;;;;23.59;74.77;99186.11;1669649;83;20149;-65
2022/05/25 04:52:02;;;;;;;;;;;;;;;23.68;71.50;99188.27;1672316;83;20724;-65
2022/05/25 04:54:28;;;;;;;;;;;;;;;23.38;69.72;99181.30;1665009;84;20183;-65
2022/05/25 04:59:40;;;;;;;;;;;;;;;22.80;64.13;99179.61;1639536;85;21430;-64
2022/05/25 05:02:06;;;;;;;;;;;;;;;22.48;70.56;99181.18;1647228;84;20531;-65
2022/05/25 05:04:32;;;;;;;;;;;;;;;22.55;68.97;99178.22;1626906;85;20220;-64
2022/05/25 05:06:59;;;;;;;;;;;;;;;22.59;69.32;99182.70;1654986;84;20225;-64
2022/05/25 05:09:25;;;;;;;;;;;;;;;23.05;71.51;99186.30;1673361;83;20233;-65
2022/05/25 05:11:51;;;;;;;;;;;;;;;23.51;69.62;99187.96;1659791;83;21111;-65
2022/05/25 05:14:18;;;;;;;;;;;;;;;23.89;70.48;99179.25;1656557;83;20174;-65
2022/05/25 05:16:45;;;;;;;;;;;;;;;24.52;70.28;99177.50;1654430;82;20224;-65
2022/05/25 05:19:12;;;;;;;;;;;;;;;24.54;68.34;99177.34;1668827;83;20220;-64
2022/05/25 05:21:39;;;;;;;;;;;;;;;24.17;65.89;99184.16;1651809;84;20236;-65
2022/05/25 05:24:08;;;;;;;;;;;;;;;23.99;64.66;99176.88;1649994;83;21410;-65
2022/05/25 05:28:20;;;;;;;;;;;;;;;24.19;65.68;99174.12;1794814;78;20192;-64
2022/05/25 05:30:55;;;;;;;;;;;;;;;24.25;65.90;99180.60;1767576;80;20109;-64
2022/05/25 05:33:22;;;;;;;;;;;;;;;24.04;63.33;99186.54;1769056;80;21025;-64
2022/05/25 05:35:52;;;;;;;;;;;;;;;23.95;65.52;99183.07;1768166;80;20177;-62
2022/05/25 05:38:20;;;;;;;;;;;;;;;23.46;62.34;99185.28;1764052;80;20100;-64
2022/05/25 05:40:46;;;;;;;;;;;;;;;22.33;60.76;99188.95;1767057;80;20150;-62
2022/05/25 05:43:13;;;;;;;;;;;;;;;21.05;60.96;99200.20;1766159;80;20170;-62
2022/05/25 05:45:42;;;;;;;;;;;;;;;20.07;62.47;99205.72;1768153;80;21282;-64
2022/05/25 05:48:14;;;;;;;;;;;;;;;19.08;62.39;99207.84;1774062;80;20090;-63
2022/05/25 05:50:41;;;;;;;;;;;;;;;18.14;63.16;99203.38;1769824;80;20118;-62
2022/05/25 05:53:09;;;;;;;;;;;;;;;17.47;64.64;99209.45;1765774;80;20168;-64
2022/05/25 05:55:36;;;;;;;;;;;;;;;17.06;65.30;99211.11;1769194;79;20206;-64
2022/05/25 05:58:03;;;;;;;;;;;;;;;16.87;65.47;99213.58;1767765;79;21453;-64
2022/05/25 06:00:29;;;;;;;;;;;;;;;16.43;67.39;99222.73;1774731;80;20246;-63
2022/05/25 06:02:56;;;;;;;;;;;;;;;16.15;66.80;99224.07;1768295;80;20567;-63
2022/05/25 06:05:22;;;;;;;;;;;;;;;15.89;67.90;99224.30;1772253;80;20218;-61
2022/05/25 06:07:49;;;;;;;;;;;;;;;15.78;67.63;99233.51;1770162;80;20432;-62
2022/05/25 06:10:15;;;;;;;;;;;;;;;15.89;67.88;99231.37;1768410;80;21088;-63
2022/05/25 06:12:41;;;;;;;;;;;;;;;16.04;68.05;99241.19;1764416;80;20190;-64
2022/05/25 06:20:38;;;;;;;;;;;;;;;15.61;68.38;99257.61;1766447;80;20532;-64
2022/05/25 06:23:04;;;;;;;;;;;;;;;15.50;68.75;99256.27;1770109;80;21087;-65
2022/05/25 06:25:31;;;;;;;;;;;;;;;15.40;68.71;99249.07;1769903;80;20116;-64
2022/05/25 06:27:58;;;;;;;;;;;;;;;15.35;69.11;99255.14;1775278;80;20217;-63
2022/05/25 06:30:25;;;;;;;;;;;;;;;15.29;69.21;99264.81;1784175;80;20212;-64
2022/05/25 06:32:51;;;;;;;;;;;;;;;15.20;69.56;99266.78;1779661;80;20086;-64
2022/05/25 06:35:18;;;;;;;;;;;;;;;15.10;69.73;99264.48;1769306;80;21472;-62
2022/05/25 06:37:48;;;;;;;;;;;;;;;14.98;69.71;99260.48;1771700;79;20483;-63
2022/05/25 06:40:14;;;;;;;;;;;;;;;14.96;70.50;99270.27;1737362;81;20182;-64
2022/05/25 06:42:43;;;;;;;;;;;;;;;14.88;70.24;99274.41;1725451;81;20143;-63
2022/05/25 06:45:11;;;;;;;;;;;;;;;14.86;70.88;99278.44;1730469;82;20147;-64
2022/05/25 06:47:37;;;;;;;;;;;;;;;14.82;70.79;99269.11;1727268;82;21098;-63
2022/05/25 06:50:05;;;;;;;;;;;;;;;14.76;71.01;99274.81;1722994;82;20222;-62
2022/05/25 06:52:31;;;;;;;;;;;;;;;14.68;71.18;99273.20;1727354;82;20088;-62
2022/05/25 06:54:58;;;;;;;;;;;;;;;14.66;71.51;99268.53;1743964;81;20506;-63
2022/05/25 06:57:27;;;;;;;;;;;;;;;14.66;72.11;99275.09;1712543;83;20189;-63
2022/05/25 06:59:54;;;;;;;;;;;;;;;15.00;73.10;99273.02;1747218;81;22035;-64
2022/05/25 07:02:23;;;;;;;;;;;;;;;15.74;72.81;99264.98;1712328;83;20449;-64
2022/05/25 07:04:51;;;;;;;;;;;;;;;16.37;71.83;99252.69;1732778;82;20168;-63
2022/05/25 07:07:18;;;;;;;;;;;;;;;17.00;71.89;99257.77;1746922;81;20097;-63
2022/05/25 07:09:44;;;;;;;;;;;;;;;17.43;71.07;99255.55;1747264;81;20145;-65
2022/05/25 07:12:10;;;;;;;;;;;;;;;17.72;70.18;99257.55;1742521;81;21053;-63
2022/05/25 07:14:39;;;;;;;;;;;;;;;17.86;70.60;99259.89;1738114;81;20423;-64
2022/05/25 07:17:08;;;;;;;;;;;;;;;18.23;70.49;99265.98;1741749;81;20096;-63
2022/05/25 07:19:34;;;;;;;;;;;;;;;18.56;70.16;99265.70;1748076;81;20177;-64
2022/05/25 07:22:01;;;;;;;;;;;;;;;19.14;71.20;99274.77;1712506;83;20424;-64
2022/05/25 07:24:27;;;;;;;;;;;;;;;19.52;67.23;99279.70;1707011;82;21429;-63
2022/05/25 07:26:54;;;;;;;;;;;;;;;18.99;67.58;99283.11;1725678;82;20241;-63
2022/05/25 07:29:20;;;;;;;;;;;;;;;18.34;67.48;99289.69;1731890;82;20120;-63
2022/05/25 07:31:55;;;;;;;;;;;;;;;18.12;68.75;99290.72;1721183;82;20176;-65
2022/05/25 07:34:26;;;;;;;;;;;;;;;18.00;67.99;99291.25;1719312;82;20193;-64
2022/05/25 07:36:57;;;;;;;;;;;;;;;17.54;67.11;99300.86;1724724;82;22122;-64
2022/05/25 07:39:27;;;;;;;;;;;;;;;17.08;65.87;99313.34;1726750;82;20582;-64
2022/05/25 07:41:57;;;;;;;;;;;;;;;16.91;67.41;99312.07;1720116;82;20141;-64
2022/05/25 07:44:27;;;;;;;;;;;;;;;16.74;67.58;99318.66;1721089;82;20226;-64
2022/05/25 07:46:54;;;;;;;;;;;;;;;16.76;68.17;99318.09;1717331;82;20525;-65
2022/05/25 07:49:23;;;;;;;;;;;;;;;16.97;68.50;99316.88;1716319;82;21101;-64
2022/05/25 07:51:52;;;;;;;;;;;;;;;17.08;67.46;99317.80;1720106;82;20213;-63
2022/05/25 07:54:19;;;;;;;;;;;;;;;16.89;67.58;99329.84;1717142;82;20331;-64
2022/05/25 07:56:46;;;;;;;;;;;;;;;16.81;68.03;99328.77;1721672;82;20504;-63
2022/05/25 07:59:14;;;;;;;;;;;;;;;16.81;68.62;99326.14;1720043;82;20220;-64
2022/05/25 08:07:16;;;;;;;;;;;;;;;17.26;68.84;99344.51;1713073;82;20092;-64
2022/05/25 08:09:43;;;;;;;;;;;;;;;17.44;68.86;99349.59;1716596;82;20337;-65
2022/05/25 08:12:11;;;;;;;;;;;;;;;17.60;68.58;99355.30;1719291;82;20139;-66
2022/05/25 08:14:37;;;;;;;;;;;;;;;17.71;68.12;99360.19;1715603;82;21229;-65
2022/05/25 08:17:06;;;;;;;;;;;;;;;17.91;68.67;99360.70;1711581;82;20195;-65
2022/05/25 08:19:34;;;;;;;;;;;;;;;18.27;68.94;99355.45;1719866;82;20130;-65
2022/05/25 08:22:00;;;;;;;;;;;;;;;18.53;68.31;99358.50;1727391;82;20495;-64
2022/05/25 08:24:29;;;;;;;;;;;;;;;18.59;67.69;99370.84;1723537;82;20507;-65
2022/05/25 08:26:55;;;;;;;;;;;;;;;18.50;67.93;99368.51;1725466;82;21480;-65
2022/05/25 08:29:25;;;;;;;;;;;;;;;18.60;67.92;99373.83;1711192;83;20173;-64
2022/05/25 08:31:53;;;;;;;;;;;;;;;18.59;67.75;99367.70;1711019;82;20197;-65
2022/05/25 08:34:18;;;;;;;;;;;;;;;18.42;66.53;99369.16;1710114;83;20114;-65
2022/05/25 08:36:44;;;;;;;;;;;;;;;18.11;65.80;99358.55;1710728;82;20174;-65
2022/05/25 08:39:11;;;;;;;;;;;;;;;17.99;65.82;99354.30;1714917;82;21134;-65
2022/05/25 08:41:38;;;;;;;;;;;;;;;17.74;66.41;99367.36;1685959;83;20214;-62
2022/05/25 08:44:26;;;;;;;;;;;;;;;17.95;67.20;99358.15;1712394;82;20146;-65
2022/05/25 08:46:58;;;;;;;;;;;;;;;18.08;66.37;99358.80;1661852;85;20168;-61
2022/05/25 08:49:26;;;;;;;;;;;;;;;17.82;65.82;99362.80;1675856;84;20569;-62
2022/05/25 08:51:55;;;;;;;;;;;;;;;17.80;66.71;99370.01;1651861;85;21469;-63
2022/05/25 08:54:23;;;;;;;;;;;;;;;17.88;66.52;99364.92;1679561;83;20239;-62
2022/05/25 08:57:04;;;;;;;;;;;;;;;17.80;66.43;99356.80;1685733;83;20197;-64
2022/05/25 08:59:37;;;;;;;;;;;;;;;17.85;66.83;99358.59;1684594;83;20185;-64
2022/05/25 09:02:24;;;;;;;;;;;;;;;18.03;66.70;99357.03;1682979;83;20188;-64
2022/05/25 09:05:18;;;;;;;;;;;;;;;18.16;66.62;99362.63;1684766;83;21142;-64
2022/05/25 09:07:58;;;;;;;;;;;;;;;18.15;66.22;99360.92;1665303;84;20169;-64
2022/05/25 09:10:25;;;;;;;;;;;;;;;18.16;66.01;99366.09;1654740;85;20537;-63
2022/05/25 09:12:59;;;;;;;;;;;;;;;17.88;65.90;99375.00;1684716;84;20889;-63
2022/05/25 09:15:32;;;;;;;;;;;;;;;17.78;65.51;99374.53;1677600;84;20125;-64
2022/05/25 09:18:13;;;;;;;;;;;;;;;17.58;65.64;99369.09;1625764;85;21094;-64
2022/05/25 09:20:43;;;;;;;;;;;;;;;17.44;66.18;99373.34;1685390;83;20188;-64
2022/05/25 09:23:13;;;;;;;;;;;;;;;17.50;66.05;99373.33;1681922;83;20229;-63
2022/05/25 09:25:44;;;;;;;;;;;;;;;17.54;66.29;99378.23;1681512;84;20120;-64
2022/05/25 09:28:20;;;;;;;;;;;;;;;17.47;66.10;99384.13;1682074;83;20778;-64
2022/05/25 09:30:50;;;;;;;;;;;;;;;17.36;66.05;99385.00;1680747;82;20540;-63
2022/05/25 09:33:31;;;;;;;;;;;;;;;17.23;66.02;99391.27;1653325;85;20189;-63
2022/05/25 09:36:01;;;;;;;;;;;;;;;17.11;66.07;99386.99;1659459;85;20186;-63
2022/05/25 09:38:49;;;;;;;;;;;;;;;17.01;66.16;99391.31;1657005;84;20722;-64
2022/05/25 09:41:44;;;;;;;;;;;;;;;16.87;65.77;99383.65;1608403;86;20213;-64
2022/05/25 09:44:13;;;;;;;;;;;;;;;16.63;65.68;99393.78;1599290;87;21138;-63
2022/05/25 09:46:58;;;;;;;;;;;;;;;16.39;65.57;99393.90;1605999;87;20183;-65
2022/05/25 09:49:47;;;;;;;;;;;;;;;16.33;66.23;99393.89;1593311;87;20149;-62
2022/05/25 09:52:18;;;;;;;;;;;;;;;16.50;66.27;99391.77;1609765;88;20295;-63
2022/05/25 09:54:57;;;;;;;;;;;;;;;16.65;66.29;99390.56;1552316;90;20239;-64
2022/05/25 09:57:27;;;;;;;;;;;;;;;16.55;65.65;99386.95;1544064;91;21027;-63
2022/05/25 10:00:03;;;;;;;;;;;;;;;16.49;65.75;99388.75;1556460;91;20246;-65
2022/05/25 10:02:33;;;;;;;;;;;;;;;16.48;66.01;99387.08;1557225;91;20597;-63
2022/05/25 10:05:27;;;;;;;;;;;;;;;16.61;66.32;99390.45;1556003;90;20249;-64
2022/05/25 10:07:54;;;;;;;;;;;;;;;16.62;65.97;99393.44;1552708;90;20400;-64
2022/05/25 10:10:27;;;;;;;;;;;;;;;16.56;65.90;99403.97;1558966;90;22209;-64
2022/05/25 10:13:17;;;;;;;;;;;;;;;16.60;66.46;99403.25;1555099;90;20269;-64
2022/05/25 10:15:51;;;;;;;;;;;;;;;16.85;66.74;99400.90;1557124;90;20252;-64
2022/05/25 10:18:15;;;;;;;;;;;;;;;17.20;67.10;99404.72;1553737;90;20217;-64
2022/05/25 10:20:45;;;;;;;;;;;;;;;17.48;66.96;99405.14;1557233;90;20229;-65
2022/05/25 10:23:21;;;;;;;;;;;;;;;17.74;66.91;99408.28;1557016;90;21950;-64
2022/05/25 10:25:57;;;;;;;;;;;;;;;17.96;66.58;99410.03;1556700;90;20207;-65
2022/05/25 10:28:35;;;;;;;;;;;;;;;17.94;66.04;99407.99;1555231;90;20239;-64
2022/05/25 10:37:12;;;;;;;;;;;;;;;17.89;66.17;99404.89;1570593;89;21373;-64
2022/05/25 10:39:43;;;;;;;;;;;;;;;17.90;66.02;99401.30;1548428;90;20637;-64
2022/05/25 10:42:26;;;;;;;;;;;;;;;17.99;66.19;99400.53;1551046;90;20324;-64
2022/05/25 10:45:06;;;;;;;;;;;;;;;18.03;64.67;99403.26;1544736;91;20520;-63
2022/05/25 10:49:22;;;;;;;;;;;;;;;17.27;65.21;99410.33;1797226;78;20177;-63
2022/05/25 10:52:45;;;;;;;;;;;;;;;16.95;65.11;99408.94;1823196;77;20183;-63
2022/05/25 10:55:16;;;;;;;;;;;;;;;16.61;65.10;99404.95;1796844;78;20143;-63
2022/05/25 10:58:10;;;;;;;;;;;;;;;16.49;65.48;99411.14;1798365;78;21283;-64
2022/05/25 11:00:53;;;;;;;;;;;;;;;16.50;65.81;99410.20;1793311;78;20197;-64
2022/05/25 11:03:46;;;;;;;;;;;;;;;16.60;65.88;99411.16;1760392;80;20215;-64
2022/05/25 11:06:49;;;;;;;;;;;;;;;16.59;65.61;99412.61;1802533;78;20169;-63
2022/05/25 11:09:23;;;;;;;;;;;;;;;16.60;65.67;99411.16;1793804;78;20162;-63
2022/05/25 11:12:24;;;;;;;;;;;;;;;16.70;65.87;99411.30;1797865;78;20187;-64
2022/05/25 11:14:57;;;;;;;;;;;;;;;16.89;65.96;99408.11;1764934;78;20491;-65
2022/05/25 11:17:50;;;;;;;;;;;;;;;17.12;65.85;99411.08;1767729;78;20179;-64
2022/05/25 11:20:40;;;;;;;;;;;;;;;17.30;65.85;99411.89;1762662;78;20188;-64
2022/05/25 11:23:39;;;;;;;;;;;;;;;17.45;65.86;99413.31;1761367;78;20146;-64
2022/05/25 11:26:32;;;;;;;;;;;;;;;17.57;65.62;99407.52;1767669;78;21094;-62
2022/05/25 11:30:05;;;;;;;;;;;;;;;17.48;65.34;99401.18;1824672;76;20181;-64
2022/05/25 11:32:50;;;;;;;;;;;;;;;17.37;65.36;99409.13;1821653;77;20198;-64
2022/05/25 11:35:36;;;;;;;;;;;;;;;17.39;65.57;99401.91;1796018;78;21411;-63
2022/05/25 11:38:18;;;;;;;;;;;;;;;17.53;65.39;99402.97;1788132;78;20154;-64
2022/05/25 11:41:03;;;;;;;;;;;;;;;17.59;65.24;99394.55;1796769;78;20144;-65
2022/05/25 11:46:14;;;;;;;;;;;;;;;17.16;63.82;99398.47;1789063;78;20212;-63
2022/05/25 11:48:48;;;;;;;;;;;;;;;17.04;65.04;99398.97;1755140;80;20174;-63
2022/05/25 11:51:33;;;;;;;;;;;;;;;17.21;64.38;99399.78;1752182;79;21831;-64
2022/05/25 11:54:15;;;;;;;;;;;;;;;17.19;63.55;99401.70;1759847;80;20578;-64
2022/05/25 11:57:17;;;;;;;;;;;;;;;16.85;64.05;99394.30;1757283;80;20100;-64
2022/05/25 12:03:12;;;;;;;;;;;;;;;16.72;64.43;99394.41;1827156;77;20549;-63
2022/05/25 12:06:49;;;;;;;;;;;;;;;16.40;64.33;99396.05;1802566;78;20236;-63
2022/05/25 12:09:35;;;;;;;;;;;;;;;16.07;64.63;99402.91;1728304;82;20578;-63
2022/05/25 12:12:17;;;;;;;;;;;;;;;15.92;65.25;99411.97;1728041;81;21105;-64
2022/05/25 12:15:05;;;;;;;;;;;;;;;15.85;65.68;99411.56;1734834;81;20164;-64
2022/05/25 12:17:45;;;;;;;;;;;;;;;15.89;66.01;99411.23;1726032;81;21132;-63
2022/05/25 12:20:14;;;;;;;;;;;;;;;15.89;66.52;99413.87;1723725;81;21013;-61
2022/05/25 12:22:45;;;;;;;;;;;;;;;16.08;66.58;99404.61;1724304;81;20133;-63
2022/05/25 12:25:15;;;;;;;;;;;;;;;16.43;66.49;99403.72;1731663;82;21082;-64
2022/05/25 12:28:03;;;;;;;;;;;;;;;16.61;66.19;99404.95;1721062;81;20186;-66
2022/05/25 12:30:43;;;;;;;;;;;;;;;16.74;65.44;99395.59;1685755;83;149860;-64
2022/05/25 12:33:08;;;;;;;;;;;;;;;16.99;65.91;99391.91;1621953;86;20110;-63
2022/05/25 12:35:40;;;;;;;;;;;;;;;17.23;65.62;99386.00;1626233;86;20117;-64
2022/05/25 12:38:08;;;;;;;;;;;;;;;17.36;65.08;99387.64;1629834;86;21133;-65
2022/05/25 12:40:46;;;;;;;;;;;;;;;17.37;64.90;99389.34;1626762;86;20226;-64
2022/05/25 12:43:37;;;;;;;;;;;;;;;17.47;65.17;99387.61;1632372;87;20194;-64
2022/05/25 12:48:59;;;;;;;;;;;;;;;17.86;65.88;99371.64;1629900;86;21045;-63
2022/05/25 12:51:32;;;;;;;;;;;;;;;18.27;65.49;99374.44;1627724;86;21090;-65
2022/05/25 12:54:01;;;;;;;;;;;;;;;18.51;65.69;99374.14;1629409;87;20524;-65
2022/05/25 12:56:39;;;;;;;;;;;;;;;18.84;65.64;99373.55;1631378;87;20249;-64
2022/05/25 12:59:13;;;;;;;;;;;;;;;19.14;65.69;99379.30;1634520;87;20188;-65
2022/05/25 13:01:42;;;;;;;;;;;;;;;19.22;64.08;99378.13;1628733;87;20141;-63
2022/05/25 13:04:13;;;;;;;;;;;;;;;18.97;64.11;99367.06;1632304;86;21075;-63
2022/05/25 13:06:48;;;;;;;;;;;;;;;19.00;64.92;99357.52;1631570;87;20466;-64
2022/05/25 13:09:40;;;;;;;;;;;;;;;19.25;64.95;99354.03;1629930;87;20207;-62
2022/05/25 13:12:40;;;;;;;;;;;;;;;19.53;65.05;99354.21;1626009;87;20234;-64
2022/05/25 13:15:19;;;;;;;;;;;;;;;19.76;64.71;99347.68;1614097;87;20248;-65
2022/05/25 13:17:49;;;;;;;;;;;;;;;19.84;64.23;99359.73;1611787;87;21063;-65
2022/05/25 13:20:28;;;;;;;;;;;;;;;19.92;63.97;99364.84;1572371;89;20188;-65
2022/05/25 13:22:59;;;;;;;;;;;;;;;19.86;63.81;99364.41;1609680;87;20589;-66
2022/05/25 13:25:32;;;;;;;;;;;;;;;19.74;63.72;99362.87;1610750;88;20237;-65
2022/05/25 13:28:02;;;;;;;;;;;;;;;19.54;63.02;99354.55;1614240;87;20592;-64
2022/05/25 13:30:54;;;;;;;;;;;;;;;19.20;62.42;99361.55;1599821;88;21555;-64
2022/05/25 13:33:29;;;;;;;;;;;;;;;18.90;62.58;99365.08;1599012;88;20711;-64
2022/05/25 13:36:07;;;;;;;;;;;;;;;18.86;63.04;99361.04;1598990;88;20390;-64
2022/05/25 13:38:57;;;;;;;;;;;;;;;18.94;63.17;99356.75;1623325;85;20545;-64
2022/05/25 13:41:26;;;;;;;;;;;;;;;19.08;63.13;99352.89;1628560;85;20262;-64
2022/05/25 13:43:57;;;;;;;;;;;;;;;19.14;62.84;99349.69;1618113;87;21147;-64
2022/05/25 13:46:48;;;;;;;;;;;;;;;19.17;62.77;99353.87;1617042;87;20844;-65
2022/05/25 13:49:26;;;;;;;;;;;;;;;19.15;62.35;99354.00;1622208;87;20264;-65
2022/05/25 13:52:13;;;;;;;;;;;;;;;18.93;61.80;99351.58;1622025;85;20199;-66
2022/05/25 13:54:41;;;;;;;;;;;;;;;18.80;62.23;99354.48;1621911;87;20189;-64
2022/05/25 13:57:11;;;;;;;;;;;;;;;18.73;62.29;99348.83;1622636;85;21307;-65
2022/05/25 13:59:40;;;;;;;;;;;;;;;18.60;62.22;99350.03;1621698;85;20216;-65
2022/05/25 14:02:17;;;;;;;;;;;;;;;18.49;62.07;99354.45;1584919;86;20113;-66
2022/05/25 14:04:46;;;;;;;;;;;;;;;18.36;62.07;99353.83;1624758;87;20090;-65
2022/05/25 14:07:37;;;;;;;;;;;;;;;18.18;61.60;99359.38;1624127;87;20565;-65
2022/05/25 14:12:53;;;;;;;;;;;;;;;17.84;61.43;99358.21;1624747;85;20204;-66
2022/05/25 14:15:22;;;;;;;;;;;;;;;17.63;62.03;99352.40;1626279;85;20983;-65
2022/05/25 14:17:56;;;;;;;;;;;;;;;17.47;61.90;99353.30;1624113;85;20188;-65
2022/05/25 14:20:25;;;;;;;;;;;;;;;17.28;62.07;99355.30;1620549;85;20454;-65
2022/05/25 14:22:52;;;;;;;;;;;;;;;17.17;62.48;99352.20;1622471;85;21231;-64
2022/05/25 14:25:21;;;;;;;;;;;;;;;17.25;62.58;99348.92;1625304;85;20205;-64
2022/05/25 14:27:48;;;;;;;;;;;;;;;17.32;62.50;99347.96;1626259;85;20117;-64
2022/05/25 14:30:18;;;;;;;;;;;;;;;17.40;62.49;99345.54;1632507;85;20540;-64
2022/05/25 14:33:06;;;;;;;;;;;;;;;17.37;62.16;99347.11;1637355;86;20094;-64
2022/05/25 14:35:35;;;;;;;;;;;;;;;17.44;62.33;99353.55;1635798;87;22484;-64
2022/05/25 14:38:07;;;;;;;;;;;;;;;17.53;62.17;99350.18;1629050;87;20207;-65
2022/05/25 14:40:37;;;;;;;;;;;;;;;17.46;61.95;99348.99;1622987;87;20142;-63
2022/05/25 14:43:04;;;;;;;;;;;;;;;17.50;62.08;99347.77;1627255;87;20177;-64
2022/05/25 14:45:32;;;;;;;;;;;;;;;17.59;62.11;99344.39;1619723;87;20124;-64
2022/05/25 14:48:05;;;;;;;;;;;;;;;17.70;62.05;99344.83;1633386;87;21629;-63
2022/05/25 14:50:35;;;;;;;;;;;;;;;17.73;61.80;99348.98;1633285;86;20191;-65
2022/05/25 14:53:22;;;;;;;;;;;;;;;17.50;60.63;99342.48;1632440;86;20198;-64
2022/05/25 14:56:02;;;;;;;;;;;;;;;17.37;61.15;99349.75;1635963;87;20247;-64
2022/05/25 14:58:33;;;;;;;;;;;;;;;17.35;60.95;99347.22;1634444;87;20246;-64
2022/05/25 15:01:09;;;;;;;;;;;;;;;17.60;61.13;99348.69;1629655;86;21170;-65
2022/05/25 15:03:57;;;;;;;;;;;;;;;17.91;59.48;99343.54;1633420;87;20256;-64
2022/05/25 15:06:26;;;;;;;;;;;;;;;18.08;60.74;99337.67;1622764;87;20140;-65
2022/05/25 15:08:59;;;;;;;;;;;;;;;18.40;59.33;99339.39;1624159;86;20104;-64
2022/05/25 15:19:30;;;;;;;6.47;2.12;;;;;;;19.27;60.74;99333.57;1824934;77;21264;-65
2022/05/25 15:21:58;;;;;;;2.67;1.40;;;;;;;19.30;60.48;99325.84;1823496;77;21070;-64
2022/05/25 15:24:28;;;;;;;3.62;2.10;;;;;;;19.10;59.66;99320.98;1824456;77;20987;-63
2022/05/25 15:27:03;;;;;;;4.85;2.30;;;;;;;18.65;60.15;99318.28;1824129;77;21094;-63
2022/05/25 15:29:35;;;;;;;5.87;1.70;;;;;;;18.57;60.17;99324.72;1824041;77;21011;-63
2022/05/25 15:32:05;;;;;;;4.78;2.67;;;;;;;18.66;60.58;99319.12;1819473;77;21519;-64
2022/05/25 15:34:37;;;;;;;3.42;2.17;;;;;;;18.78;60.43;99323.35;1820334;77;20929;-63
2022/05/25 15:37:01;;;;;;;3.98;2.12;;;;;;;18.72;60.24;99315.92;1821467;77;20921;-63
2022/05/25 15:39:28;;;;;;;5.60;2.40;;;;;;;18.58;60.09;99313.16;1820922;77;21011;-63
2022/05/25 15:41:54;;;;;;;3.62;2.10;;;;;;;18.48;60.25;99309.63;1819285;76;21039;-62
2022/05/25 15:44:21;;;;;;;4.15;1.98;;;;;;;18.41;60.27;99308.02;1822604;77;21855;-62
2022/05/25 15:46:48;;;;;;;3.27;1.42;;;;;;;18.34;60.10;99316.11;1820292;77;21545;-61
2022/05/25 15:49:18;;;;;;;2.60;1.87;;;;;;;18.14;59.94;99314.34;1820707;77;20972;-61
2022/05/25 15:51:53;;;;;;;6.40;2.52;;;;;;;17.90;59.80;99315.47;1786513;78;21608;-64
2022/05/25 15:54:23;;;;;;;4.10;2.17;;;;;;;17.41;59.69;99323.45;1734013;81;21764;-64
2022/05/25 15:56:54;;;;;;;3.05;1.55;;;;;;;17.14;60.13;99326.07;1765126;80;21062;-64
2022/05/25 15:59:24;;;;;;;2.85;1.80;;;;;;;16.92;60.12;99323.48;1759307;81;21037;-64
2022/05/25 16:01:54;;;;;;;2.92;1.70;;;;;;;16.75;60.47;99315.08;1763967;80;21000;-64
2022/05/25 16:04:27;;;;;;;3.15;1.85;;;;;;;16.73;60.65;99315.67;1764070;80;21012;-64
2022/05/25 16:07:16;;;;;;;2.27;2.08;;;;;;;16.73;60.53;99318.80;1764655;80;21068;-64
2022/05/25 16:09:45;;;;;;;2.08;1.47;;;;;;;16.59;60.40;99315.92;1733653;82;22310;-62
2022/05/25 16:12:15;;;;;;;2.10;1.47;;;;;;;16.31;60.77;99320.70;1731480;81;20973;-65
2022/05/25 16:14:44;;;;;;;2.15;1.77;;;;;;;16.03;60.88;99329.05;1730959;81;21069;-65
2022/05/25 16:17:16;;;;;;;2.77;2.02;;;;;;;15.90;61.40;99323.87;1715639;83;21673;-65
2022/05/25 16:19:40;;;;;;;2.95;2.25;;;;;;;15.94;61.64;99333.71;1742925;81;21021;-65
2022/05/25 16:22:08;;;;;;;3.10;2.05;;;;;;;15.87;61.69;99323.63;1715450;81;21218;-65
2022/05/25 16:24:36;;;;;;;;;;;;;;;15.85;61.73;99325.55;1758291;80;21080;-65
2022/05/25 16:27:04;;;;;;;4.37;2.22;;;;;;;15.81;62.13;99324.57;1720357;81;20124;-65
2022/05/25 22:21:29;;;;;;;9.73;7.10;;;;;;;7.17;77.61;99378.70;1634710;85;21013;-63
2022/05/25 22:23:56;;;;;;;11.48;6.75;;;;;;;7.14;77.68;99383.55;1642424;84;21182;-63
2022/05/25 22:26:23;;;;;;;7.97;6.23;;;;;;;7.13;77.82;99375.81;1667358;84;22734;-64
2022/05/25 22:28:50;;;;;;;8.75;6.85;;;;;;;7.11;77.92;99382.80;1671736;84;21043;-63
2022/05/25 22:31:16;;;;;;;9.10;6.10;;;;;;;7.09;77.98;99384.64;1663854;84;20923;-63
2022/05/25 22:33:43;;;;;;;10.23;6.67;;;;;;;7.08;78.09;99389.41;1662305;83;21144;-63
2022/05/25 22:36:10;;;;;;;8.10;5.67;;;;;;;7.10;78.25;99388.91;1660985;83;21040;-63
2022/05/25 23:33:05;;;;;;;5.75;5.15;;;;;;;7.27;80.19;99355.34;1612992;86;20966;-64
2022/05/25 23:35:32;;;;;;;5.22;4.70;;;;;;;7.27;80.19;99355.34;1616121;86;22371;-64
2022/05/25 23:37:59;;;;;;;7.08;5.65;;;;;;;7.39;80.15;99366.56;1652641;84;21161;-64
2022/05/25 23:43:45;;;;;;;6.43;5.20;;;;;;;7.39;80.31;99362.66;1658065;84;21512;-64
2022/05/25 23:45:39;;;;;;;7.95;5.62;;;;;;;7.42;80.41;99362.13;1667178;84;21139;-64
2022/05/25 23:48:06;;;;;;;6.00;5.40;;;;;;;7.42;80.46;99363.42;1664832;84;21022;-64
